sensor_id;sensor_type;location;lat;lon;timestamp;temperature;humidity
11387;DHT22;5748;53.102;8.456;2022-08-21T00:01:25;19.50;48.20
11387;DHT22;5748;53.102;8.456;2022-08-21T00:03:54;19.50;48.40
11387;DHT22;5748;53.102;8.456;2022-08-21T00:06:23;19.40;48.00
11387;DHT22;5748;53.102;8.456;2022-08-21T00:08:51;19.40;48.40
11387;DHT22;5748;53.102;8.456;2022-08-21T00:11:19;19.40;48.30
11387;DHT22;5748;53.102;8.456;2022-08-21T00:13:47;19.30;48.40
11387;DHT22;5748;53.102;8.456;2022-08-21T00:16:14;19.30;48.20
11387;DHT22;5748;53.102;8.456;2022-08-21T00:18:41;19.30;48.30
11387;DHT22;5748;53.102;8.456;2022-08-21T00:21:10;19.20;48.40
11387;DHT22;5748;53.102;8.456;2022-08-21T00:23:38;19.30;48.60
11387;DHT22;5748;53.102;8.456;2022-08-21T00:26:07;19.20;49.10
11387;DHT22;5748;53.102;8.456;2022-08-21T00:28:54;19.20;48.60
11387;DHT22;5748;53.102;8.456;2022-08-21T00:31:21;19.10;50.20
11387;DHT22;5748;53.102;8.456;2022-08-21T00:33:48;19.20;48.60
11387;DHT22;5748;53.102;8.456;2022-08-21T00:36:16;19.20;48.70
11387;DHT22;5748;53.102;8.456;2022-08-21T00:38:43;19.10;48.70
11387;DHT22;5748;53.102;8.456;2022-08-21T00:41:11;19.10;48.80
11387;DHT22;5748;53.102;8.456;2022-08-21T00:43:46;19.00;48.80
11387;DHT22;5748;53.102;8.456;2022-08-21T00:46:14;19.00;49.50
11387;DHT22;5748;53.102;8.456;2022-08-21T00:48:41;19.00;48.80
11387;DHT22;5748;53.102;8.456;2022-08-21T00:51:12;19.00;48.80
11387;DHT22;5748;53.102;8.456;2022-08-21T00:53:43;19.00;49.20
11387;DHT22;5748;53.102;8.456;2022-08-21T00:56:12;19.00;49.10
11387;DHT22;5748;53.102;8.456;2022-08-21T00:58:41;19.00;49.10
11387;DHT22;5748;53.102;8.456;2022-08-21T01:01:09;18.90;49.00
11387;DHT22;5748;53.102;8.456;2022-08-21T01:03:38;18.90;48.90
11387;DHT22;5748;53.102;8.456;2022-08-21T01:06:06;18.80;49.00
11387;DHT22;5748;53.102;8.456;2022-08-21T01:08:35;18.80;49.10
11387;DHT22;5748;53.102;8.456;2022-08-21T01:11:03;18.80;49.20
11387;DHT22;5748;53.102;8.456;2022-08-21T01:13:35;18.80;49.20
11387;DHT22;5748;53.102;8.456;2022-08-21T01:16:05;18.70;49.50
11387;DHT22;5748;53.102;8.456;2022-08-21T01:18:36;18.70;49.40
11387;DHT22;5748;53.102;8.456;2022-08-21T01:21:10;18.70;49.30
11387;DHT22;5748;53.102;8.456;2022-08-21T01:23:42;18.60;49.90
11387;DHT22;5748;53.102;8.456;2022-08-21T01:26:11;18.60;49.40
11387;DHT22;5748;53.102;8.456;2022-08-21T01:28:44;18.60;49.30
11387;DHT22;5748;53.102;8.456;2022-08-21T01:31:27;18.60;49.60
11387;DHT22;5748;53.102;8.456;2022-08-21T01:33:56;18.60;50.10
11387;DHT22;5748;53.102;8.456;2022-08-21T01:36:25;18.50;49.50
11387;DHT22;5748;53.102;8.456;2022-08-21T01:38:52;18.60;49.60
11387;DHT22;5748;53.102;8.456;2022-08-21T01:41:36;18.50;49.50
11387;DHT22;5748;53.102;8.456;2022-08-21T01:44:03;18.40;50.80
11387;DHT22;5748;53.102;8.456;2022-08-21T01:46:31;18.40;49.50
11387;DHT22;5748;53.102;8.456;2022-08-21T01:49:06;18.40;49.60
11387;DHT22;5748;53.102;8.456;2022-08-21T01:51:35;18.30;50.40
11387;DHT22;5748;53.102;8.456;2022-08-21T01:54:02;18.40;49.90
11387;DHT22;5748;53.102;8.456;2022-08-21T01:56:41;18.30;49.70
11387;DHT22;5748;53.102;8.456;2022-08-21T01:59:10;18.30;51.00
11387;DHT22;5748;53.102;8.456;2022-08-21T02:01:38;18.40;50.00
11387;DHT22;5748;53.102;8.456;2022-08-21T02:04:07;18.30;49.90
11387;DHT22;5748;53.102;8.456;2022-08-21T02:06:37;18.30;50.10
11387;DHT22;5748;53.102;8.456;2022-08-21T02:09:06;18.20;50.10
11387;DHT22;5748;53.102;8.456;2022-08-21T02:11:35;18.30;50.10
11387;DHT22;5748;53.102;8.456;2022-08-21T02:14:05;18.20;50.10
11387;DHT22;5748;53.102;8.456;2022-08-21T02:16:32;18.20;50.00
11387;DHT22;5748;53.102;8.456;2022-08-21T02:19:00;18.20;50.10
11387;DHT22;5748;53.102;8.456;2022-08-21T02:21:27;18.20;50.10
11387;DHT22;5748;53.102;8.456;2022-08-21T02:23:55;18.20;50.20
11387;DHT22;5748;53.102;8.456;2022-08-21T02:26:22;18.20;50.40
11387;DHT22;5748;53.102;8.456;2022-08-21T02:28:49;18.20;50.40
11387;DHT22;5748;53.102;8.456;2022-08-21T02:31:16;18.20;50.50
11387;DHT22;5748;53.102;8.456;2022-08-21T02:33:43;18.20;50.70
11387;DHT22;5748;53.102;8.456;2022-08-21T02:36:12;18.10;50.60
11387;DHT22;5748;53.102;8.456;2022-08-21T02:38:41;18.20;51.00
11387;DHT22;5748;53.102;8.456;2022-08-21T02:41:13;18.20;50.90
11387;DHT22;5748;53.102;8.456;2022-08-21T02:43:41;18.20;51.20
11387;DHT22;5748;53.102;8.456;2022-08-21T02:46:10;18.20;51.00
11387;DHT22;5748;53.102;8.456;2022-08-21T02:48:41;18.30;51.30
11387;DHT22;5748;53.102;8.456;2022-08-21T02:51:11;18.30;51.50
11387;DHT22;5748;53.102;8.456;2022-08-21T02:53:41;18.30;51.40
11387;DHT22;5748;53.102;8.456;2022-08-21T02:56:11;18.30;51.30
11387;DHT22;5748;53.102;8.456;2022-08-21T02:58:42;18.40;51.40
11387;DHT22;5748;53.102;8.456;2022-08-21T03:01:13;18.40;51.50
11387;DHT22;5748;53.102;8.456;2022-08-21T03:03:43;18.40;51.60
11387;DHT22;5748;53.102;8.456;2022-08-21T03:06:13;18.40;51.40
11387;DHT22;5748;53.102;8.456;2022-08-21T03:08:42;18.30;51.40
11387;DHT22;5748;53.102;8.456;2022-08-21T03:11:12;18.30;51.30
11387;DHT22;5748;53.102;8.456;2022-08-21T03:13:40;18.40;51.40
11387;DHT22;5748;53.102;8.456;2022-08-21T03:16:07;18.20;51.10
11387;DHT22;5748;53.102;8.456;2022-08-21T03:18:35;18.30;51.30
11387;DHT22;5748;53.102;8.456;2022-08-21T03:21:02;18.30;51.30
11387;DHT22;5748;53.102;8.456;2022-08-21T03:23:29;18.30;51.30
11387;DHT22;5748;53.102;8.456;2022-08-21T03:25:57;18.30;51.30
11387;DHT22;5748;53.102;8.456;2022-08-21T03:28:25;18.30;51.40
11387;DHT22;5748;53.102;8.456;2022-08-21T03:30:53;18.30;51.50
11387;DHT22;5748;53.102;8.456;2022-08-21T03:33:35;18.30;51.40
11387;DHT22;5748;53.102;8.456;2022-08-21T03:36:06;18.30;52.70
11387;DHT22;5748;53.102;8.456;2022-08-21T03:38:35;18.30;51.70
11387;DHT22;5748;53.102;8.456;2022-08-21T03:41:11;18.20;51.40
11387;DHT22;5748;53.102;8.456;2022-08-21T03:43:41;18.20;52.00
11387;DHT22;5748;53.102;8.456;2022-08-21T03:46:08;18.20;51.40
11387;DHT22;5748;53.102;8.456;2022-08-21T03:48:38;18.20;51.40
11387;DHT22;5748;53.102;8.456;2022-08-21T03:51:06;18.20;51.50
11387;DHT22;5748;53.102;8.456;2022-08-21T03:53:33;18.30;51.50
11387;DHT22;5748;53.102;8.456;2022-08-21T03:56:01;18.00;51.30
11387;DHT22;5748;53.102;8.456;2022-08-21T03:58:29;18.10;51.40
11387;DHT22;5748;53.102;8.456;2022-08-21T04:00:59;18.10;51.40
11387;DHT22;5748;53.102;8.456;2022-08-21T04:03:28;18.00;51.70
11387;DHT22;5748;53.102;8.456;2022-08-21T04:05:55;18.00;51.70
11387;DHT22;5748;53.102;8.456;2022-08-21T04:08:23;17.90;51.50
11387;DHT22;5748;53.102;8.456;2022-08-21T04:10:52;17.90;51.50
11387;DHT22;5748;53.102;8.456;2022-08-21T04:13:21;17.90;51.80
11387;DHT22;5748;53.102;8.456;2022-08-21T04:15:48;17.80;51.60
11387;DHT22;5748;53.102;8.456;2022-08-21T04:18:17;17.80;51.60
11387;DHT22;5748;53.102;8.456;2022-08-21T04:20:46;17.80;51.90
11387;DHT22;5748;53.102;8.456;2022-08-21T04:23:15;17.80;52.00
11387;DHT22;5748;53.102;8.456;2022-08-21T04:25:42;17.80;51.90
11387;DHT22;5748;53.102;8.456;2022-08-21T04:28:13;17.70;51.80
11387;DHT22;5748;53.102;8.456;2022-08-21T04:30:40;17.80;52.20
11387;DHT22;5748;53.102;8.456;2022-08-21T04:33:07;17.70;51.80
11387;DHT22;5748;53.102;8.456;2022-08-21T04:35:35;17.80;52.00
11387;DHT22;5748;53.102;8.456;2022-08-21T04:38:11;17.70;52.10
11387;DHT22;5748;53.102;8.456;2022-08-21T04:40:38;17.70;52.90
11387;DHT22;5748;53.102;8.456;2022-08-21T04:43:08;17.70;52.10
11387;DHT22;5748;53.102;8.456;2022-08-21T04:45:38;17.70;52.40
11387;DHT22;5748;53.102;8.456;2022-08-21T04:48:08;17.70;52.30
11387;DHT22;5748;53.102;8.456;2022-08-21T04:50:41;17.60;52.20
11387;DHT22;5748;53.102;8.456;2022-08-21T04:53:19;17.70;52.60
11387;DHT22;5748;53.102;8.456;2022-08-21T04:55:47;17.70;53.00
11387;DHT22;5748;53.102;8.456;2022-08-21T04:58:17;17.60;52.20
11387;DHT22;5748;53.102;8.456;2022-08-21T05:00:56;17.60;52.50
11387;DHT22;5748;53.102;8.456;2022-08-21T05:03:24;17.70;53.30
11387;DHT22;5748;53.102;8.456;2022-08-21T05:05:52;17.70;52.40
11387;DHT22;5748;53.102;8.456;2022-08-21T05:08:21;17.60;52.50
11387;DHT22;5748;53.102;8.456;2022-08-21T05:10:51;17.60;52.70
11387;DHT22;5748;53.102;8.456;2022-08-21T05:13:18;17.70;52.70
11387;DHT22;5748;53.102;8.456;2022-08-21T05:15:46;17.70;52.80
11387;DHT22;5748;53.102;8.456;2022-08-21T05:18:13;17.60;52.80
11387;DHT22;5748;53.102;8.456;2022-08-21T05:20:40;17.70;52.80
11387;DHT22;5748;53.102;8.456;2022-08-21T05:23:10;17.70;52.90
11387;DHT22;5748;53.102;8.456;2022-08-21T05:25:39;17.70;53.20
11387;DHT22;5748;53.102;8.456;2022-08-21T05:28:06;17.70;53.10
11387;DHT22;5748;53.102;8.456;2022-08-21T05:30:34;17.80;53.20
11387;DHT22;5748;53.102;8.456;2022-08-21T05:33:03;17.80;53.30
11387;DHT22;5748;53.102;8.456;2022-08-21T05:35:50;17.80;53.50
11387;DHT22;5748;53.102;8.456;2022-08-21T05:38:19;17.90;54.90
11387;DHT22;5748;53.102;8.456;2022-08-21T05:40:46;17.90;53.70
11387;DHT22;5748;53.102;8.456;2022-08-21T05:43:14;17.90;53.60
11387;DHT22;5748;53.102;8.456;2022-08-21T05:45:41;18.00;53.80
11387;DHT22;5748;53.102;8.456;2022-08-21T05:48:10;18.00;53.90
11387;DHT22;5748;53.102;8.456;2022-08-21T05:50:39;18.10;54.70
11387;DHT22;5748;53.102;8.456;2022-08-21T05:53:07;18.10;54.10
11387;DHT22;5748;53.102;8.456;2022-08-21T05:55:38;18.20;54.20
11387;DHT22;5748;53.102;8.456;2022-08-21T05:58:05;18.30;54.70
11387;DHT22;5748;53.102;8.456;2022-08-21T06:00:39;18.40;54.50
11387;DHT22;5748;53.102;8.456;2022-08-21T06:03:11;18.50;55.30
11387;DHT22;5748;53.102;8.456;2022-08-21T06:05:38;18.70;55.40
11387;DHT22;5748;53.102;8.456;2022-08-21T06:08:05;18.80;55.80
11387;DHT22;5748;53.102;8.456;2022-08-21T06:10:32;19.00;56.50
11387;DHT22;5748;53.102;8.456;2022-08-21T06:13:01;19.30;57.20
11387;DHT22;5748;53.102;8.456;2022-08-21T06:15:28;19.60;57.60
11387;DHT22;5748;53.102;8.456;2022-08-21T06:17:55;19.90;57.50
11387;DHT22;5748;53.102;8.456;2022-08-21T06:20:23;20.20;57.40
11387;DHT22;5748;53.102;8.456;2022-08-21T06:22:50;20.50;57.40
11387;DHT22;5748;53.102;8.456;2022-08-21T06:25:17;20.90;57.40
11387;DHT22;5748;53.102;8.456;2022-08-21T06:27:44;21.20;57.30
11387;DHT22;5748;53.102;8.456;2022-08-21T06:30:13;21.50;56.90
11387;DHT22;5748;53.102;8.456;2022-08-21T06:32:40;21.70;56.60
11387;DHT22;5748;53.102;8.456;2022-08-21T06:35:09;21.90;56.50
11387;DHT22;5748;53.102;8.456;2022-08-21T06:37:37;22.10;56.10
11387;DHT22;5748;53.102;8.456;2022-08-21T06:40:05;22.30;56.00
11387;DHT22;5748;53.102;8.456;2022-08-21T06:42:33;22.40;55.70
11387;DHT22;5748;53.102;8.456;2022-08-21T06:45:00;22.50;55.30
11387;DHT22;5748;53.102;8.456;2022-08-21T06:47:29;22.60;55.10
11387;DHT22;5748;53.102;8.456;2022-08-21T06:49:56;22.60;55.00
11387;DHT22;5748;53.102;8.456;2022-08-21T06:52:23;22.70;54.90
11387;DHT22;5748;53.102;8.456;2022-08-21T06:54:50;22.70;54.80
11387;DHT22;5748;53.102;8.456;2022-08-21T06:57:17;22.70;54.80
11387;DHT22;5748;53.102;8.456;2022-08-21T06:59:44;22.70;54.80
11387;DHT22;5748;53.102;8.456;2022-08-21T07:02:12;22.70;54.70
11387;DHT22;5748;53.102;8.456;2022-08-21T07:04:40;22.80;54.80
11387;DHT22;5748;53.102;8.456;2022-08-21T07:07:07;22.80;54.80
11387;DHT22;5748;53.102;8.456;2022-08-21T07:09:34;22.80;54.70
11387;DHT22;5748;53.102;8.456;2022-08-21T07:12:02;22.80;54.70
11387;DHT22;5748;53.102;8.456;2022-08-21T07:14:29;22.80;54.80
11387;DHT22;5748;53.102;8.456;2022-08-21T07:16:57;22.90;54.90
11387;DHT22;5748;53.102;8.456;2022-08-21T07:19:24;22.90;54.90
11387;DHT22;5748;53.102;8.456;2022-08-21T07:21:53;22.90;55.00
11387;DHT22;5748;53.102;8.456;2022-08-21T07:24:22;23.00;55.20
11387;DHT22;5748;53.102;8.456;2022-08-21T07:26:49;23.10;55.10
11387;DHT22;5748;53.102;8.456;2022-08-21T07:29:16;23.10;55.00
11387;DHT22;5748;53.102;8.456;2022-08-21T07:31:44;23.20;55.20
11387;DHT22;5748;53.102;8.456;2022-08-21T07:34:12;23.20;55.20
11387;DHT22;5748;53.102;8.456;2022-08-21T07:36:39;23.30;55.20
11387;DHT22;5748;53.102;8.456;2022-08-21T07:39:07;23.30;55.20
11387;DHT22;5748;53.102;8.456;2022-08-21T07:41:48;23.40;55.10
11387;DHT22;5748;53.102;8.456;2022-08-21T07:44:16;23.50;55.40
11387;DHT22;5748;53.102;8.456;2022-08-21T07:46:43;23.60;55.20
11387;DHT22;5748;53.102;8.456;2022-08-21T07:49:11;23.70;55.10
11387;DHT22;5748;53.102;8.456;2022-08-21T07:51:38;23.70;54.90
11387;DHT22;5748;53.102;8.456;2022-08-21T07:54:06;23.80;54.80
11387;DHT22;5748;53.102;8.456;2022-08-21T07:56:34;23.90;54.80
11387;DHT22;5748;53.102;8.456;2022-08-21T07:59:01;23.90;54.80
11387;DHT22;5748;53.102;8.456;2022-08-21T08:01:28;24.10;54.70
11387;DHT22;5748;53.102;8.456;2022-08-21T08:03:56;24.10;54.70
11387;DHT22;5748;53.102;8.456;2022-08-21T08:06:23;24.20;54.70
11387;DHT22;5748;53.102;8.456;2022-08-21T08:08:51;24.30;54.80
11387;DHT22;5748;53.102;8.456;2022-08-21T08:11:20;24.30;54.80
11387;DHT22;5748;53.102;8.456;2022-08-21T08:13:49;24.50;54.70
11387;DHT22;5748;53.102;8.456;2022-08-21T08:16:18;24.50;54.70
11387;DHT22;5748;53.102;8.456;2022-08-21T08:18:45;24.60;54.70
11387;DHT22;5748;53.102;8.456;2022-08-21T08:21:13;24.70;54.70
11387;DHT22;5748;53.102;8.456;2022-08-21T08:23:41;24.70;54.60
11387;DHT22;5748;53.102;8.456;2022-08-21T08:26:10;24.80;54.60
11387;DHT22;5748;53.102;8.456;2022-08-21T08:28:47;25.00;54.80
11387;DHT22;5748;53.102;8.456;2022-08-21T08:31:14;25.00;54.60
11387;DHT22;5748;53.102;8.456;2022-08-21T08:34:00;25.20;54.70
11387;DHT22;5748;53.102;8.456;2022-08-21T08:36:32;25.30;54.30
11387;DHT22;5748;53.102;8.456;2022-08-21T08:42:51;25.50;54.10
11387;DHT22;5748;53.102;8.456;2022-08-21T08:45:22;25.70;54.20
11387;DHT22;5748;53.102;8.456;2022-08-21T08:47:55;25.80;54.30
11387;DHT22;5748;53.102;8.456;2022-08-21T08:50:29;25.90;54.00
11387;DHT22;5748;53.102;8.456;2022-08-21T08:53:12;26.00;53.80
11387;DHT22;5748;53.102;8.456;2022-08-21T08:55:43;26.10;53.40
11387;DHT22;5748;53.102;8.456;2022-08-21T08:58:22;26.00;53.50
11387;DHT22;5748;53.102;8.456;2022-08-21T09:00:54;26.10;53.20
11387;DHT22;5748;53.102;8.456;2022-08-21T09:03:22;26.20;53.50
11387;DHT22;5748;53.102;8.456;2022-08-21T09:05:56;26.30;53.40
11387;DHT22;5748;53.102;8.456;2022-08-21T09:08:44;26.40;53.10
11387;DHT22;5748;53.102;8.456;2022-08-21T09:11:21;26.50;52.90
11387;DHT22;5748;53.102;8.456;2022-08-21T09:14:11;26.60;53.20
11387;DHT22;5748;53.102;8.456;2022-08-21T09:16:48;26.70;53.20
11387;DHT22;5748;53.102;8.456;2022-08-21T09:19:40;26.80;53.10
11387;DHT22;5748;53.102;8.456;2022-08-21T09:22:39;27.00;52.40
11387;DHT22;5748;53.102;8.456;2022-08-21T09:25:15;27.00;51.60
11387;DHT22;5748;53.102;8.456;2022-08-21T09:27:47;27.10;52.30
11387;DHT22;5748;53.102;8.456;2022-08-21T09:30:14;27.10;52.10
11387;DHT22;5748;53.102;8.456;2022-08-21T09:32:43;27.20;52.20
11387;DHT22;5748;53.102;8.456;2022-08-21T09:35:19;27.20;52.30
11387;DHT22;5748;53.102;8.456;2022-08-21T09:37:52;27.30;52.00
11387;DHT22;5748;53.102;8.456;2022-08-21T09:40:32;27.40;51.90
11387;DHT22;5748;53.102;8.456;2022-08-21T09:43:20;27.40;50.60
11387;DHT22;5748;53.102;8.456;2022-08-21T09:46:03;27.50;51.00
11387;DHT22;5748;53.102;8.456;2022-08-21T09:48:42;27.40;50.20
11387;DHT22;5748;53.102;8.456;2022-08-21T09:51:20;27.50;51.20
11387;DHT22;5748;53.102;8.456;2022-08-21T09:53:51;27.50;51.30
11387;DHT22;5748;53.102;8.456;2022-08-21T09:56:35;27.60;51.70
11387;DHT22;5748;53.102;8.456;2022-08-21T09:59:26;27.70;51.50
11387;DHT22;5748;53.102;8.456;2022-08-21T10:02:25;27.80;51.70
11387;DHT22;5748;53.102;8.456;2022-08-21T10:04:58;27.90;50.40
11387;DHT22;5748;53.102;8.456;2022-08-21T10:07:29;28.00;50.90
11387;DHT22;5748;53.102;8.456;2022-08-21T10:10:03;28.10;50.90
11387;DHT22;5748;53.102;8.456;2022-08-21T10:12:42;28.30;50.80
11387;DHT22;5748;53.102;8.456;2022-08-21T10:15:20;28.30;49.90
11387;DHT22;5748;53.102;8.456;2022-08-21T10:17:56;28.40;49.80
11387;DHT22;5748;53.102;8.456;2022-08-21T10:20:33;28.50;50.00
11387;DHT22;5748;53.102;8.456;2022-08-21T10:23:28;28.70;50.00
11387;DHT22;5748;53.102;8.456;2022-08-21T10:26:08;28.80;49.20
11387;DHT22;5748;53.102;8.456;2022-08-21T10:28:42;28.90;49.60
11387;DHT22;5748;53.102;8.456;2022-08-21T10:31:18;29.00;49.60
11387;DHT22;5748;53.102;8.456;2022-08-21T10:33:55;29.10;48.80
11387;DHT22;5748;53.102;8.456;2022-08-21T10:36:36;29.20;49.30
11387;DHT22;5748;53.102;8.456;2022-08-21T10:39:15;29.20;49.30
11387;DHT22;5748;53.102;8.456;2022-08-21T10:45:04;29.60;49.80
11387;DHT22;5748;53.102;8.456;2022-08-21T10:47:44;30.20;49.50
11387;DHT22;5748;53.102;8.456;2022-08-21T10:50:22;30.70;51.80
11387;DHT22;5748;53.102;8.456;2022-08-21T10:53:14;31.40;51.80
11387;DHT22;5748;53.102;8.456;2022-08-21T10:55:50;32.10;49.70
11387;DHT22;5748;53.102;8.456;2022-08-21T10:58:26;32.80;51.20
11387;DHT22;5748;53.102;8.456;2022-08-21T11:00:59;33.50;50.80
11387;DHT22;5748;53.102;8.456;2022-08-21T11:03:34;34.10;49.70
11387;DHT22;5748;53.102;8.456;2022-08-21T11:06:11;34.50;48.70
11387;DHT22;5748;53.102;8.456;2022-08-21T11:08:43;34.70;47.00
11387;DHT22;5748;53.102;8.456;2022-08-21T11:11:15;34.80;46.20
11387;DHT22;5748;53.102;8.456;2022-08-21T11:14:25;34.80;45.40
11387;DHT22;5748;53.102;8.456;2022-08-21T11:17:07;34.80;43.20
11387;DHT22;5748;53.102;8.456;2022-08-21T11:19:42;34.60;41.90
11387;DHT22;5748;53.102;8.456;2022-08-21T11:22:15;34.20;42.60
11387;DHT22;5748;53.102;8.456;2022-08-21T11:25:16;34.10;43.90
11387;DHT22;5748;53.102;8.456;2022-08-21T11:27:50;34.00;42.50
11387;DHT22;5748;53.102;8.456;2022-08-21T11:30:23;34.20;45.60
11387;DHT22;5748;53.102;8.456;2022-08-21T11:33:10;34.50;46.00
11387;DHT22;5748;53.102;8.456;2022-08-21T11:35:52;34.90;44.30
11387;DHT22;5748;53.102;8.456;2022-08-21T11:38:35;35.40;46.00
11387;DHT22;5748;53.102;8.456;2022-08-21T11:41:17;36.00;44.10
11387;DHT22;5748;53.102;8.456;2022-08-21T11:43:56;36.60;44.80
11387;DHT22;5748;53.102;8.456;2022-08-21T11:46:41;37.20;44.60
11387;DHT22;5748;53.102;8.456;2022-08-21T11:49:30;37.90;43.60
11387;DHT22;5748;53.102;8.456;2022-08-21T11:52:13;38.50;42.30
11387;DHT22;5748;53.102;8.456;2022-08-21T11:54:46;39.00;41.00
11387;DHT22;5748;53.102;8.456;2022-08-21T11:57:25;39.30;41.70
11387;DHT22;5748;53.102;8.456;2022-08-21T12:00:01;39.50;39.60
11387;DHT22;5748;53.102;8.456;2022-08-21T12:02:34;39.60;39.90
11387;DHT22;5748;53.102;8.456;2022-08-21T12:05:06;39.80;40.30
11387;DHT22;5748;53.102;8.456;2022-08-21T12:07:40;40.10;40.40
11387;DHT22;5748;53.102;8.456;2022-08-21T12:10:10;40.30;39.40
11387;DHT22;5748;53.102;8.456;2022-08-21T12:13:06;40.60;39.40
11387;DHT22;5748;53.102;8.456;2022-08-21T12:15:42;40.80;37.60
11387;DHT22;5748;53.102;8.456;2022-08-21T12:18:22;41.00;37.00
11387;DHT22;5748;53.102;8.456;2022-08-21T12:21:01;41.20;36.40
11387;DHT22;5748;53.102;8.456;2022-08-21T12:23:33;41.40;36.70
11387;DHT22;5748;53.102;8.456;2022-08-21T12:26:24;41.60;36.40
11387;DHT22;5748;53.102;8.456;2022-08-21T12:29:15;41.80;35.10
11387;DHT22;5748;53.102;8.456;2022-08-21T12:32:01;42.00;33.50
11387;DHT22;5748;53.102;8.456;2022-08-21T12:34:36;42.10;34.40
11387;DHT22;5748;53.102;8.456;2022-08-21T12:37:15;42.20;34.80
11387;DHT22;5748;53.102;8.456;2022-08-21T12:39:49;42.20;35.30
11387;DHT22;5748;53.102;8.456;2022-08-21T12:42:22;42.40;36.00
11387;DHT22;5748;53.102;8.456;2022-08-21T12:44:55;42.50;35.40
11387;DHT22;5748;53.102;8.456;2022-08-21T12:47:29;42.60;34.40
11387;DHT22;5748;53.102;8.456;2022-08-21T12:50:03;42.50;33.20
11387;DHT22;5748;53.102;8.456;2022-08-21T12:52:36;42.30;32.70
11387;DHT22;5748;53.102;8.456;2022-08-21T12:55:10;41.90;32.40
11387;DHT22;5748;53.102;8.456;2022-08-21T12:57:40;41.50;33.10
11387;DHT22;5748;53.102;8.456;2022-08-21T13:00:13;41.20;32.20
11387;DHT22;5748;53.102;8.456;2022-08-21T13:02:45;41.10;32.20
11387;DHT22;5748;53.102;8.456;2022-08-21T13:05:16;41.00;33.30
11387;DHT22;5748;53.102;8.456;2022-08-21T13:07:48;41.00;34.50
11387;DHT22;5748;53.102;8.456;2022-08-21T13:10:19;40.90;33.30
11387;DHT22;5748;53.102;8.456;2022-08-21T13:12:57;40.70;32.40
11387;DHT22;5748;53.102;8.456;2022-08-21T13:15:30;40.60;31.80
11387;DHT22;5748;53.102;8.456;2022-08-21T13:18:01;40.40;32.50
11387;DHT22;5748;53.102;8.456;2022-08-21T13:20:31;40.20;32.30
11387;DHT22;5748;53.102;8.456;2022-08-21T13:23:02;40.00;32.30
11387;DHT22;5748;53.102;8.456;2022-08-21T13:25:34;39.90;32.70
11387;DHT22;5748;53.102;8.456;2022-08-21T13:28:13;39.90;32.70
11387;DHT22;5748;53.102;8.456;2022-08-21T13:30:44;39.80;31.80
11387;DHT22;5748;53.102;8.456;2022-08-21T13:33:13;39.90;32.40
11387;DHT22;5748;53.102;8.456;2022-08-21T13:35:50;40.00;33.20
11387;DHT22;5748;53.102;8.456;2022-08-21T13:38:20;40.10;32.40
11387;DHT22;5748;53.102;8.456;2022-08-21T13:40:53;40.30;33.20
11387;DHT22;5748;53.102;8.456;2022-08-21T13:43:28;40.60;33.10
11387;DHT22;5748;53.102;8.456;2022-08-21T13:46:01;40.70;31.70
11387;DHT22;5748;53.102;8.456;2022-08-21T13:48:32;40.80;32.40
11387;DHT22;5748;53.102;8.456;2022-08-21T13:51:14;40.90;32.10
11387;DHT22;5748;53.102;8.456;2022-08-21T13:53:47;41.00;30.90
11387;DHT22;5748;53.102;8.456;2022-08-21T13:56:25;41.00;30.80
11387;DHT22;5748;53.102;8.456;2022-08-21T13:59:07;41.10;30.30
11387;DHT22;5748;53.102;8.456;2022-08-21T14:01:37;41.00;30.20
11387;DHT22;5748;53.102;8.456;2022-08-21T14:04:15;40.90;30.60
11387;DHT22;5748;53.102;8.456;2022-08-21T14:06:46;40.80;30.00
11387;DHT22;5748;53.102;8.456;2022-08-21T14:09:24;40.60;30.60
11387;DHT22;5748;53.102;8.456;2022-08-21T14:11:54;40.30;29.40
11387;DHT22;5748;53.102;8.456;2022-08-21T14:14:24;40.00;29.90
11387;DHT22;5748;53.102;8.456;2022-08-21T14:16:57;39.60;29.60
11387;DHT22;5748;53.102;8.456;2022-08-21T14:19:28;39.10;29.40
11387;DHT22;5748;53.102;8.456;2022-08-21T14:22:22;38.60;29.60
11387;DHT22;5748;53.102;8.456;2022-08-21T14:24:59;38.10;29.30
11387;DHT22;5748;53.102;8.456;2022-08-21T14:27:36;37.60;29.80
11387;DHT22;5748;53.102;8.456;2022-08-21T14:30:12;37.20;29.80
11387;DHT22;5748;53.102;8.456;2022-08-21T14:32:45;36.80;30.00
11387;DHT22;5748;53.102;8.456;2022-08-21T14:35:14;36.50;30.30
11387;DHT22;5748;53.102;8.456;2022-08-21T14:37:43;36.20;30.40
11387;DHT22;5748;53.102;8.456;2022-08-21T14:40:12;35.80;30.50
11387;DHT22;5748;53.102;8.456;2022-08-21T14:42:40;35.60;30.70
11387;DHT22;5748;53.102;8.456;2022-08-21T14:45:12;35.30;30.70
11387;DHT22;5748;53.102;8.456;2022-08-21T14:47:43;35.00;30.80
11387;DHT22;5748;53.102;8.456;2022-08-21T14:50:12;34.80;31.20
11387;DHT22;5748;53.102;8.456;2022-08-21T14:52:40;34.60;31.10
11387;DHT22;5748;53.102;8.456;2022-08-21T14:55:09;34.40;31.20
11387;DHT22;5748;53.102;8.456;2022-08-21T14:57:41;34.10;31.40
11387;DHT22;5748;53.102;8.456;2022-08-21T15:00:11;34.00;31.30
11387;DHT22;5748;53.102;8.456;2022-08-21T15:02:39;33.80;31.60
11387;DHT22;5748;53.102;8.456;2022-08-21T15:05:08;33.60;31.60
11387;DHT22;5748;53.102;8.456;2022-08-21T15:07:41;33.40;31.80
11387;DHT22;5748;53.102;8.456;2022-08-21T15:10:10;33.30;31.60
11387;DHT22;5748;53.102;8.456;2022-08-21T15:12:38;33.20;31.90
11387;DHT22;5748;53.102;8.456;2022-08-21T15:15:08;33.00;31.80
11387;DHT22;5748;53.102;8.456;2022-08-21T15:17:36;32.90;32.10
11387;DHT22;5748;53.102;8.456;2022-08-21T15:20:11;32.90;32.70
11387;DHT22;5748;53.102;8.456;2022-08-21T15:22:39;32.90;32.70
11387;DHT22;5748;53.102;8.456;2022-08-21T15:25:25;32.90;32.70
11387;DHT22;5748;53.102;8.456;2022-08-21T15:27:59;33.00;33.20
11387;DHT22;5748;53.102;8.456;2022-08-21T15:30:40;33.00;32.60
11387;DHT22;5748;53.102;8.456;2022-08-21T15:33:16;32.90;32.30
11387;DHT22;5748;53.102;8.456;2022-08-21T15:35:45;32.90;32.10
11387;DHT22;5748;53.102;8.456;2022-08-21T15:38:12;32.80;32.10
11387;DHT22;5748;53.102;8.456;2022-08-21T15:40:40;32.70;33.00
11387;DHT22;5748;53.102;8.456;2022-08-21T15:43:23;32.60;32.50
11387;DHT22;5748;53.102;8.456;2022-08-21T15:45:52;32.50;32.70
11387;DHT22;5748;53.102;8.456;2022-08-21T15:48:20;32.40;32.60
11387;DHT22;5748;53.102;8.456;2022-08-21T15:50:50;32.30;32.60
11387;DHT22;5748;53.102;8.456;2022-08-21T15:53:17;32.20;32.40
11387;DHT22;5748;53.102;8.456;2022-08-21T15:56:00;32.20;33.20
11387;DHT22;5748;53.102;8.456;2022-08-21T15:58:27;32.00;32.70
11387;DHT22;5748;53.102;8.456;2022-08-21T16:01:01;31.90;32.50
11387;DHT22;5748;53.102;8.456;2022-08-21T16:03:29;31.80;32.80
11387;DHT22;5748;53.102;8.456;2022-08-21T16:06:01;31.70;32.80
11387;DHT22;5748;53.102;8.456;2022-08-21T16:08:34;31.60;32.80
11387;DHT22;5748;53.102;8.456;2022-08-21T16:11:03;31.50;33.20
11387;DHT22;5748;53.102;8.456;2022-08-21T16:13:43;31.40;33.40
11387;DHT22;5748;53.102;8.456;2022-08-21T16:16:23;31.30;33.10
11387;DHT22;5748;53.102;8.456;2022-08-21T16:18:53;31.20;33.30
11387;DHT22;5748;53.102;8.456;2022-08-21T16:21:21;31.10;33.20
11387;DHT22;5748;53.102;8.456;2022-08-21T16:23:48;31.00;33.10